Time;durP1;ratioP1;P1;durP2;ratioP2;P2;SDS_P1;SDS_P2;PMS_P1;PMS_P2;Temp;Humidity;BMP_temperature;BMP_pressure;BME280_temperature;BME280_humidity;BME280_pressure;Samples;Min_cycle;Max_cycle;Signal;HPM_P1;HPM_P2
2022/02/12 00:01:02;;;;;;;4.90;2.40;;;;;;;2.42;76.23;100890.38;5097966;28;20044;-73
2022/02/12 00:03:34;;;;;;;3.90;2.22;;;;;;;2.55;76.45;100902.78;5097797;28;20064;-72
2022/02/12 00:06:03;;;;;;;5.65;2.85;;;;;;;2.68;75.56;100910.19;5097897;28;20051;-72
2022/02/12 00:08:34;;;;;;;7.22;2.60;;;;;;;2.78;75.25;100910.66;5097405;28;20040;-73
2022/02/12 00:11:02;;;;;;;5.13;2.80;;;;;;;2.81;75.39;100914.19;5097807;28;20457;-73
2022/02/12 00:13:31;;;;;;;6.55;2.78;;;;;;;2.65;75.17;100915.09;5097443;28;20036;-72
2022/02/12 00:16:03;;;;;;;4.13;2.30;;;;;;;2.49;75.34;100920.13;5097650;28;20066;-73
2022/02/12 00:18:35;;;;;;;5.95;2.70;;;;;;;2.45;75.72;100918.22;5097291;28;20364;-73
2022/02/12 00:21:04;;;;;;;6.35;2.83;;;;;;;2.47;75.35;100924.19;5097630;28;20044;-73
2022/02/12 00:23:35;;;;;;;4.73;2.60;;;;;;;2.42;75.30;100925.66;5097844;28;20072;-72
2022/02/12 00:26:07;;;;;;;4.68;2.65;;;;;;;2.33;75.60;100925.16;5097560;28;20126;-72
2022/02/12 00:28:39;;;;;;;8.95;3.25;;;;;;;2.28;75.81;100925.72;5097035;28;20040;-74
2022/02/12 00:31:10;;;;;;;9.63;3.33;;;;;;;2.23;75.11;100933.00;5097117;28;20536;-73
2022/02/12 00:33:44;;;;;;;7.57;3.45;;;;;;;2.16;75.49;100936.00;5097064;28;20052;-72
2022/02/12 00:36:13;;;;;;;7.15;3.67;;;;;;;2.14;75.53;100940.09;5097579;28;20397;-73
2022/02/12 00:38:51;;;;;;;6.85;3.78;;;;;;;2.09;75.54;100944.00;5096340;28;20140;-73
2022/02/12 00:41:20;;;;;;;10.20;4.35;;;;;;;1.98;75.79;100940.94;5096914;28;20142;-73
2022/02/12 00:43:48;;;;;;;10.07;4.97;;;;;;;1.94;76.18;100938.19;5096840;28;20055;-73
2022/02/12 00:46:20;;;;;;;11.47;5.17;;;;;;;1.83;75.98;100949.31;5097101;28;20284;-73
2022/02/12 00:48:49;;;;;;;11.18;5.15;;;;;;;1.70;76.58;100957.00;5096599;28;20036;-73
2022/02/12 00:51:27;;;;;;;10.03;5.20;;;;;;;1.73;76.75;100947.06;5096988;28;20446;-73
2022/02/12 00:53:58;;;;;;;8.93;4.88;;;;;;;1.56;76.08;100960.41;5096637;28;20304;-73
2022/02/12 00:56:27;;;;;;;9.45;4.90;;;;;;;1.56;77.21;100962.91;5096594;28;20048;-72
2022/02/12 00:58:56;;;;;;;9.32;4.35;;;;;;;1.44;76.54;100972.28;5096495;28;20106;-73
2022/02/12 01:01:25;;;;;;;9.17;4.37;;;;;;;1.42;77.06;100968.84;5095535;28;20040;-73
2022/02/12 01:03:54;;;;;;;5.27;3.37;;;;;;;1.32;76.87;100967.41;5096472;28;20040;-73
2022/02/12 01:06:23;;;;;;;9.25;4.57;;;;;;;1.39;77.41;100966.13;5095624;28;20040;-73
2022/02/12 01:09:04;;;;;;;7.22;4.10;;;;;;;1.31;76.84;100966.56;5096423;28;20042;-74
2022/02/12 01:11:33;;;;;;;9.38;4.10;;;;;;;1.33;77.32;100969.16;5096359;28;20048;-72
2022/02/12 01:14:02;;;;;;;11.77;4.93;;;;;;;1.32;77.55;100973.31;5096569;28;20063;-73
2022/02/12 01:16:34;;;;;;;10.43;4.18;;;;;;;1.48;77.46;100981.72;5096145;28;20036;-73
2022/02/12 01:19:06;;;;;;;9.27;4.70;;;;;;;1.53;77.80;100982.84;5096137;28;20044;-73
2022/02/12 01:21:35;;;;;;;7.28;4.00;;;;;;;1.33;77.46;100985.13;5096421;28;20413;-73
2022/02/12 01:24:08;;;;;;;8.20;4.23;;;;;;;1.29;77.68;100988.25;5096043;28;20070;-73
2022/02/12 01:26:37;;;;;;;9.95;4.55;;;;;;;1.14;78.16;100982.34;5096029;28;20293;-72
2022/02/12 01:29:07;;;;;;;8.10;4.38;;;;;;;1.12;77.87;100983.91;5095909;28;20073;-73
2022/02/12 01:31:36;;;;;;;7.00;3.70;;;;;;;1.08;78.02;100981.97;5096531;28;20044;-73
2022/02/12 01:34:07;;;;;;;9.40;4.27;;;;;;;1.09;78.57;100996.28;5095854;28;20044;-73
2022/02/12 01:36:39;;;;;;;9.57;4.53;;;;;;;1.19;77.86;100997.69;5096182;28;20048;-73
2022/02/12 01:39:09;;;;;;;7.28;3.88;;;;;;;1.12;78.12;100998.13;5095615;28;20044;-73
2022/02/12 01:41:47;;;;;;;7.50;4.03;;;;;;;1.00;78.23;101000.78;5095771;28;20068;-73
2022/02/12 01:44:16;;;;;;;8.35;4.03;;;;;;;0.95;78.73;100999.66;5095712;28;20059;-73
2022/02/12 01:46:54;;;;;;;7.38;4.10;;;;;;;0.82;78.50;100993.78;5096450;28;20040;-73
2022/02/12 01:49:23;;;;;;;7.45;3.75;;;;;;;0.78;78.70;100994.41;5095469;28;20481;-73
2022/02/12 01:51:55;;;;;;;9.50;4.27;;;;;;;0.89;79.01;100984.19;5095535;28;20098;-74
2022/02/12 01:54:31;;;;;;;8.85;4.70;;;;;;;0.94;79.48;100984.47;5095811;28;20069;-73
2022/02/12 01:57:03;;;;;;;8.57;3.88;;;;;;;1.02;79.39;100985.78;5095487;28;20505;-73
2022/02/12 01:59:34;;;;;;;8.00;4.00;;;;;;;1.28;79.98;100995.69;5095372;28;20072;-73
2022/02/12 02:02:04;;;;;;;8.77;3.83;;;;;;;1.39;79.77;100989.63;5095635;28;20047;-73
2022/02/12 02:04:33;;;;;;;7.80;4.55;;;;;;;1.61;79.54;101016.88;5095310;28;20040;-73
2022/02/12 02:07:02;;;;;;;8.57;4.53;;;;;;;1.48;78.79;101019.47;5095499;28;20390;-74
2022/02/12 02:09:32;;;;;;;13.18;4.93;;;;;;;1.29;79.30;101022.59;5095497;28;20064;-73
2022/02/12 02:12:02;;;;;;;10.05;4.38;;;;;;;1.21;78.82;101014.59;5093973;28;20044;-73
2022/02/12 02:14:43;;;;;;;6.65;4.13;;;;;;;1.21;79.56;101029.69;5095391;28;20050;-73
2022/02/12 02:17:15;;;;;;;9.02;4.63;;;;;;;1.20;79.54;101032.97;5094620;28;20052;-73
2022/02/12 02:19:45;;;;;;;10.13;4.75;;;;;;;1.20;79.48;101032.97;5095237;28;20064;-73
2022/02/12 02:22:16;;;;;;;11.10;5.10;;;;;;;1.28;79.94;101039.31;5095221;28;20036;-74
2022/02/12 02:24:46;;;;;;;9.85;5.47;;;;;;;1.30;79.54;101040.25;5094929;28;20043;-73
2022/02/12 02:27:18;;;;;;;11.80;4.60;;;;;;;1.33;79.67;101040.44;5095154;28;20048;-73
2022/02/12 02:29:53;;;;;;;7.97;4.25;;;;;;;1.33;79.14;101050.50;5094992;28;20043;-72
2022/02/12 02:32:22;;;;;;;9.38;4.70;;;;;;;1.21;79.20;101038.88;5094753;28;20489;-73
2022/02/12 02:34:52;;;;;;;8.55;4.78;;;;;;;1.13;79.84;101040.94;5094711;28;20056;-73
2022/02/12 02:37:23;;;;;;;7.47;4.25;;;;;;;1.20;79.23;101045.53;5094064;28;20505;-74
2022/02/12 02:39:56;;;;;;;7.65;4.25;;;;;;;1.07;79.13;101054.78;5094538;28;20044;-73
2022/02/12 02:42:25;;;;;;;8.75;5.05;;;;;;;0.99;79.58;101056.84;5094611;28;20052;-73
2022/02/12 02:44:54;;;;;;;6.22;3.63;;;;;;;0.98;79.44;101055.13;5093529;28;20155;-73
2022/02/12 02:50:02;;;;;;;7.47;3.57;;;;;;;0.91;79.07;101067.25;5094654;28;20512;-73
2022/02/12 02:58:18;;;;;;;8.65;3.92;;;;;;;0.62;79.43;101068.84;5094186;28;20040;-73
2022/02/12 03:00:47;;;;;;;9.80;4.30;;;;;;;0.73;79.62;101074.53;5094464;28;20401;-73
2022/02/12 03:03:16;;;;;;;7.27;4.00;;;;;;;0.58;79.12;101073.59;5094534;28;20063;-73
2022/02/12 03:05:45;;;;;;;9.77;4.50;;;;;;;0.55;79.44;101078.44;5094107;28;20280;-73
2022/02/12 03:08:14;;;;;;;10.07;4.40;;;;;;;0.50;79.48;101082.31;5094145;28;20040;-73
2022/02/12 03:10:58;;;;;;;8.93;4.17;;;;;;;0.50;80.07;101078.16;5093040;28;20349;-73
2022/02/12 03:13:28;;;;;;;7.88;4.20;;;;;;;0.46;79.88;101082.88;5094129;28;20044;-73
2022/02/12 03:15:57;;;;;;;10.40;4.15;;;;;;;0.42;80.04;101083.47;5093978;28;20056;-74
2022/02/12 03:18:28;;;;;;;10.57;4.30;;;;;;;0.46;80.06;101081.25;5093874;28;20035;-73
2022/02/12 03:20:57;;;;;;;7.88;3.75;;;;;;;0.43;79.86;101085.22;5094263;28;20051;-73
2022/02/12 03:23:26;;;;;;;9.93;4.47;;;;;;;0.43;79.70;101086.06;5093876;28;20075;-73
2022/02/12 03:25:59;;;;;;;7.43;4.23;;;;;;;0.25;79.86;101086.59;5093904;28;20042;-74
2022/02/12 03:28:28;;;;;;;7.93;3.83;;;;;;;0.21;80.12;101087.16;5093506;28;20048;-73
2022/02/12 03:30:57;;;;;;;8.63;4.63;;;;;;;0.28;80.07;101090.16;5093657;28;20043;-73
2022/02/12 03:33:27;;;;;;;7.57;4.23;;;;;;;0.22;80.28;101093.91;5094021;28;20616;-73
2022/02/12 03:35:56;;;;;;;7.53;4.07;;;;;;;0.19;80.28;101093.75;5093665;28;20280;-73
2022/02/12 03:38:27;;;;;;;7.00;3.65;;;;;;;0.12;80.26;101101.66;5092326;28;20097;-73
2022/02/12 03:41:09;;;;;;;8.65;4.47;;;;;;;0.09;80.33;101096.44;5093726;28;20097;-73
2022/02/12 03:43:38;;;;;;;9.90;4.60;;;;;;;0.14;80.45;101105.13;5093720;28;20614;-73
2022/02/12 03:46:09;;;;;;;9.15;4.45;;;;;;;0.15;80.70;101101.81;5093621;28;20094;-73
2022/02/12 03:48:38;;;;;;;8.45;4.47;;;;;;;0.12;80.69;101087.44;5093543;28;20062;-73
2022/02/12 03:51:07;;;;;;;6.50;3.63;;;;;;;0.14;80.88;101100.09;5093439;28;20044;-74
2022/02/12 03:53:36;;;;;;;8.30;4.32;;;;;;;0.13;80.58;101103.38;5093566;28;20367;-73
2022/02/12 03:56:10;;;;;;;8.75;4.25;;;;;;;0.09;80.63;101094.81;5092907;28;20052;-73
2022/02/12 03:58:39;;;;;;;9.85;4.18;;;;;;;0.15;80.58;101112.75;5093537;28;20127;-73
2022/02/12 04:01:07;;;;;;;9.20;5.20;;;;;;;0.11;80.59;101113.34;5093711;28;20489;-74
2022/02/12 04:03:37;;;;;;;9.85;4.05;;;;;;;0.05;80.80;101114.59;5093711;28;20421;-73
2022/02/12 04:06:06;;;;;;;8.75;4.63;;;;;;;-0.13;80.49;101119.28;5093510;28;20052;-74
2022/02/12 04:08:35;;;;;;;6.40;4.00;;;;;;;-0.24;80.65;101126.09;5093415;28;20079;-74
2022/02/12 04:11:06;;;;;;;7.20;4.63;;;;;;;-0.22;80.65;101134.63;5093285;28;20043;-73
2022/02/12 04:13:37;;;;;;;7.75;4.00;;;;;;;-0.17;80.57;101133.25;5093363;28;20077;-73
2022/02/12 04:16:06;;;;;;;8.50;4.35;;;;;;;-0.17;80.70;101135.78;5093442;28;20055;-73
2022/02/12 04:18:35;;;;;;;9.10;4.07;;;;;;;-0.33;80.62;101135.53;5093280;28;20047;-73
2022/02/12 04:21:05;;;;;;;8.07;3.72;;;;;;;-0.29;80.69;101144.16;5092112;28;20040;-73
2022/02/12 04:23:33;;;;;;;10.90;3.85;;;;;;;-0.23;80.94;101147.94;5093228;28;20044;-73
2022/02/12 04:26:05;;;;;;;7.05;3.95;;;;;;;-0.15;80.96;101146.78;5093228;28;20086;-73
2022/02/12 04:28:38;;;;;;;7.63;3.90;;;;;;;-0.06;80.94;101146.50;5093545;28;20047;-73
2022/02/12 04:31:08;;;;;;;7.55;4.43;;;;;;;0.04;80.85;101151.34;5093122;28;20048;-74
2022/02/12 04:33:38;;;;;;;8.23;4.45;;;;;;;-0.05;80.94;101144.09;5093768;28;20044;-73
2022/02/12 04:36:10;;;;;;;7.43;3.65;;;;;;;-0.02;80.68;101151.81;5093470;28;20102;-73
2022/02/12 04:38:39;;;;;;;7.80;4.25;;;;;;;-0.05;80.61;101141.56;5092918;28;20134;-74
2022/02/12 04:41:07;;;;;;;9.37;4.13;;;;;;;-0.01;80.48;101140.16;5094814;28;20505;-74
2022/02/12 04:43:58;;;;;;;8.10;4.00;;;;;;;-0.10;80.97;101140.41;5097003;28;20039;-73
2022/02/12 04:46:27;;;;;;;7.50;4.13;;;;;;;-0.04;80.79;101144.97;5096827;28;20113;-73
2022/02/12 04:49:05;;;;;;;9.60;4.43;;;;;;;-0.13;81.10;101150.28;5096809;28;20056;-73
2022/02/12 04:51:38;;;;;;;6.93;4.00;;;;;;;-0.27;80.94;101151.00;5096673;28;20051;-72
2022/02/12 04:54:09;;;;;;;8.00;3.75;;;;;;;-0.26;80.74;101152.75;5096982;28;20063;-72
2022/02/12 04:56:38;;;;;;;7.50;3.45;;;;;;;-0.38;80.51;101161.97;5096909;28;20059;-72
2022/02/12 04:59:09;;;;;;;6.15;3.10;;;;;;;-0.49;80.92;101137.81;5096556;28;20036;-73
2022/02/12 05:01:38;;;;;;;8.02;3.67;;;;;;;-0.45;81.02;101164.84;5096551;28;20040;-72
2022/02/12 05:04:07;;;;;;;8.20;3.60;;;;;;;-0.44;80.72;101161.56;5096722;28;20067;-74
2022/02/12 05:06:36;;;;;;;6.45;3.83;;;;;;;-0.49;80.97;101162.03;5096426;28;20051;-74
2022/02/12 05:09:05;;;;;;;7.35;3.53;;;;;;;-0.41;80.87;101160.91;5096366;28;20040;-74
2022/02/12 05:11:37;;;;;;;7.68;3.75;;;;;;;-0.35;81.16;101167.19;5096565;28;20051;-74
2022/02/12 05:14:08;;;;;;;8.80;4.22;;;;;;;-0.37;80.76;101171.25;5096842;28;20109;-74
2022/02/12 05:16:39;;;;;;;9.43;4.07;;;;;;;-0.52;81.03;101167.69;5095137;28;20101;-74
2022/02/12 05:19:08;;;;;;;7.37;3.57;;;;;;;-0.60;80.67;101168.81;5095015;28;20072;-74
2022/02/12 05:21:40;;;;;;;8.15;4.03;;;;;;;-0.51;80.82;101168.56;5096578;28;20261;-74
2022/02/12 05:24:09;;;;;;;7.10;3.65;;;;;;;-0.60;80.42;101173.81;5096077;28;20052;-74
2022/02/12 05:26:38;;;;;;;7.43;4.05;;;;;;;-0.71;80.66;101173.13;5096394;28;20122;-73
2022/02/12 05:29:11;;;;;;;9.55;4.55;;;;;;;-0.64;80.68;101171.88;5095973;28;20032;-74
2022/02/12 05:31:43;;;;;;;7.57;3.83;;;;;;;-0.59;80.86;101178.09;5096259;28;20040;-73
2022/02/12 05:34:17;;;;;;;7.53;3.53;;;;;;;-0.59;81.00;101180.59;5095901;28;20079;-73
2022/02/12 05:36:47;;;;;;;8.10;4.00;;;;;;;-0.61;81.03;101184.63;5095875;28;20067;-73
2022/02/12 05:39:16;;;;;;;8.63;3.72;;;;;;;-0.51;81.18;101184.50;5095634;28;20131;-73
2022/02/12 05:41:45;;;;;;;9.55;4.47;;;;;;;-0.36;81.02;101189.66;5096043;28;20516;-73
2022/02/12 05:44:18;;;;;;;8.80;4.20;;;;;;;-0.58;81.08;101197.38;5095552;28;20045;-73
2022/02/12 05:46:49;;;;;;;7.93;4.18;;;;;;;-0.68;80.96;101210.94;5095694;28;20044;-73
2022/02/12 05:49:22;;;;;;;8.57;4.53;;;;;;;-0.67;81.02;101211.78;5096017;28;20097;-73
2022/02/12 05:51:51;;;;;;;7.75;4.20;;;;;;;-0.61;81.08;101207.19;5095286;28;20041;-73
2022/02/12 05:54:20;;;;;;;10.20;4.60;;;;;;;-0.65;80.82;101219.44;5095458;28;20040;-74
2022/02/12 05:56:52;;;;;;;9.15;4.97;;;;;;;-0.78;80.53;101217.72;5095901;28;20055;-74
2022/02/12 05:59:23;;;;;;;8.13;4.22;;;;;;;-0.85;80.98;101216.44;5095414;28;20032;-74
2022/02/12 06:01:52;;;;;;;8.80;4.65;;;;;;;-0.75;81.20;101218.81;5095417;28;20097;-74
2022/02/12 06:04:21;;;;;;;11.30;5.38;;;;;;;-0.47;81.40;101226.56;5095284;28;20127;-75
2022/02/12 06:07:18;;;;;;;10.30;5.90;;;;;;;-0.26;81.08;101222.97;5095192;28;20046;-74
2022/02/12 06:09:47;;;;;;;11.65;5.20;;;;;;;-0.41;80.90;101223.59;5095196;28;20043;-73
2022/02/12 06:12:16;;;;;;;9.77;5.05;;;;;;;-0.43;81.21;101220.97;5094986;28;20124;-73
2022/02/12 06:14:49;;;;;;;11.77;5.97;;;;;;;-0.35;81.33;101232.41;5095098;28;20044;-73
2022/02/12 06:17:18;;;;;;;10.23;5.25;;;;;;;-0.11;81.30;101236.53;5093882;28;20056;-72
2022/02/12 06:19:47;;;;;;;11.53;5.70;;;;;;;0.13;81.63;101223.84;5095016;28;20074;-73
2022/02/12 06:22:16;;;;;;;5.90;3.85;;;;;;;0.42;81.68;101239.16;5094947;28;20785;-74
2022/02/12 06:24:44;;;;;;;11.40;5.25;;;;;;;0.71;81.84;101234.34;5094893;28;20046;-74
2022/02/12 06:27:19;;;;;;;8.85;5.10;;;;;;;1.12;81.14;101235.31;5094905;28;20072;-74
2022/02/12 06:29:50;;;;;;;12.60;5.18;;;;;;;1.44;81.44;101239.75;5094791;28;20056;-74
2022/02/12 06:32:23;;;;;;;10.85;5.80;;;;;;;1.73;80.89;101231.41;5095049;28;20567;-74
2022/02/12 06:34:55;;;;;;;10.00;5.57;;;;;;;1.76;80.61;101239.16;5095076;28;20048;-73
2022/02/12 06:37:24;;;;;;;9.25;5.28;;;;;;;1.80;79.74;101233.56;5059408;28;20401;-73
2022/02/12 06:39:53;;;;;;;10.23;5.43;;;;;;;1.83;79.80;101251.31;5094718;28;20085;-73
2022/02/12 06:42:22;;;;;;;6.97;4.07;;;;;;;1.78;79.95;101252.69;5094834;28;20063;-74
2022/02/12 06:44:55;;;;;;;9.37;4.97;;;;;;;1.77;79.72;101245.94;5095179;28;20075;-74
2022/02/12 06:47:24;;;;;;;11.23;4.75;;;;;;;1.87;79.39;101248.22;5094510;28;20056;-72
2022/02/12 06:49:52;;;;;;;11.93;6.22;;;;;;;1.91;79.77;101261.09;5094725;28;20496;-73
2022/02/12 06:52:27;;;;;;;10.95;5.82;;;;;;;1.99;79.56;101253.97;5094696;28;20386;-73
2022/02/12 06:54:56;;;;;;;12.05;5.38;;;;;;;2.07;79.16;101257.81;5094552;28;20481;-73
2022/02/12 06:57:25;;;;;;;9.93;5.57;;;;;;;2.16;79.17;101262.50;5094372;28;20043;-74
2022/02/12 06:59:59;;;;;;;11.77;6.53;;;;;;;2.28;79.30;101264.06;5094287;28;20404;-74
2022/02/12 07:02:39;;;;;;;13.43;6.75;;;;;;;2.43;78.73;101270.00;5094189;28;20052;-73
2022/02/12 07:05:19;;;;;;;11.73;6.13;;;;;;;2.62;78.95;101280.34;5093815;28;20051;-73
2022/02/12 07:08:00;;;;;;;;;;;;;;;2.81;78.96;101278.84;5094502;28;20058;-73
2022/02/12 07:10:31;;;;;;;12.05;6.32;;;;;;;2.80;79.19;101283.03;5094014;28;20370;-73
2022/02/12 07:13:00;;;;;;;11.95;5.90;;;;;;;2.69;79.10;101281.53;5093896;28;20102;-73
2022/02/12 07:15:31;;;;;;;9.60;5.77;;;;;;;2.55;78.58;101273.22;5093877;28;20121;-73
2022/02/12 07:18:00;;;;;;;15.18;6.82;;;;;;;2.43;78.64;101272.50;5095315;28;20369;-73
2022/02/12 07:20:29;;;;;;;14.43;6.60;;;;;;;2.49;78.62;101285.47;5092985;28;20393;-73
2022/02/12 07:23:10;;;;;;;13.40;6.07;;;;;;;2.69;78.81;101292.50;5110786;28;20298;-74
2022/02/12 07:25:39;;;;;;;11.80;6.53;;;;;;;2.78;77.92;101293.81;5096329;28;20036;-73
2022/02/12 07:28:08;;;;;;;10.23;6.03;;;;;;;2.93;78.18;101294.66;5093872;28;20127;-73
2022/02/12 07:30:42;;;;;;;14.10;7.57;;;;;;;3.08;77.67;101306.44;5093771;28;20498;-73
2022/02/12 07:33:12;;;;;;;13.70;7.28;;;;;;;3.20;77.41;101306.25;5093760;28;20131;-73
2022/02/12 07:35:41;;;;;;;;;;;;;;;3.23;77.24;101304.78;5094055;28;20043;-73
2022/02/12 07:38:37;;;;;;;11.30;6.22;;;;;;;3.40;77.14;101305.69;5096080;28;19928;-74
2022/02/12 07:41:07;;;;;;;11.38;6.68;;;;;;;3.74;76.84;101308.34;5114277;28;20042;-73
2022/02/12 07:43:51;;;;;;;10.85;6.80;;;;;;;4.04;76.03;101313.31;5071376;28;20102;-74
2022/02/12 07:46:22;;;;;;;11.73;7.22;;;;;;;4.32;76.10;101322.31;5071310;28;20048;-74
2022/02/12 07:48:52;;;;;;;11.95;7.20;;;;;;;4.46;75.89;101311.22;5071299;28;20045;-73
2022/02/12 07:51:22;;;;;;;14.18;6.40;;;;;;;4.54;75.34;101315.00;5054487;28;20450;-73
2022/02/12 07:53:51;;;;;;;10.77;5.23;;;;;;;4.63;74.17;101315.47;5071284;28;20119;-74
2022/02/12 07:56:20;;;;;;;9.70;5.18;;;;;;;4.73;73.60;101308.38;5070983;28;20289;-73
2022/02/12 07:58:49;;;;;;;9.77;4.90;;;;;;;4.88;73.25;101313.31;5071119;28;20043;-74
2022/02/12 08:01:17;;;;;;;11.20;5.23;;;;;;;5.07;73.14;101318.47;5071082;28;20063;-73
2022/02/12 08:03:47;;;;;;;9.15;4.60;;;;;;;5.29;71.91;101317.81;5071158;28;20048;-73
2022/02/12 08:09:01;;;;;;;4.55;2.45;;;;;;;5.43;70.42;101332.84;5071263;28;20059;-74
2022/02/12 08:11:38;;;;;;;6.70;2.35;;;;;;;5.46;69.91;101328.72;5071151;28;20083;-73
2022/02/12 08:14:07;;;;;;;6.30;2.60;;;;;;;5.55;69.02;101346.84;5081657;28;20044;-73
2022/02/12 08:16:36;;;;;;;3.97;2.35;;;;;;;5.64;68.47;101349.81;5118275;28;20122;-73
2022/02/12 08:19:06;;;;;;;3.17;1.63;;;;;;;5.68;67.78;101351.69;5117646;28;20055;-73
2022/02/12 08:21:38;;;;;;;4.20;2.22;;;;;;;5.85;67.12;101348.28;5117727;28;20039;-74
2022/02/12 08:24:07;;;;;;;3.92;2.08;;;;;;;5.86;66.33;101344.94;5117746;28;20058;-74
2022/02/12 08:26:36;;;;;;;5.28;2.30;;;;;;;5.97;65.94;101351.38;5117862;28;20374;-73
2022/02/12 08:29:24;;;;;;;5.03;2.78;;;;;;;6.14;65.70;101355.53;5117610;28;20039;-73
2022/02/12 08:32:18;;;;;;;14.98;5.00;;;;;;;6.23;65.65;101350.84;5094231;28;20036;-73
2022/02/12 08:34:49;;;;;;;9.52;3.60;;;;;;;6.25;65.10;101351.78;5099243;28;20055;-73
2022/02/12 08:37:18;;;;;;;5.05;2.47;;;;;;;6.51;64.60;101358.81;5114717;28;20043;-74
2022/02/12 08:39:49;;;;;;;4.40;2.30;;;;;;;6.55;63.35;101363.22;5098913;28;20044;-73
2022/02/12 08:42:20;;;;;;;5.13;2.85;;;;;;;6.45;63.31;101361.13;5096912;28;20490;-73
2022/02/12 08:44:49;;;;;;;3.60;2.30;;;;;;;6.47;62.69;101378.91;5096941;28;20056;-73
2022/02/12 08:47:19;;;;;;;4.47;2.30;;;;;;;6.39;62.01;101376.06;5096678;28;20493;-74
2022/02/12 08:49:49;;;;;;;6.55;2.42;;;;;;;6.38;61.99;101354.00;5100259;28;20134;-73
2022/02/12 08:52:18;;;;;;;4.45;2.25;;;;;;;6.38;60.74;101373.47;5117559;28;20412;-73
2022/02/12 08:54:47;;;;;;;4.25;2.22;;;;;;;6.46;60.51;101372.97;5117151;28;20047;-73
2022/02/12 08:57:15;;;;;;;6.78;1.98;;;;;;;6.63;60.37;101371.16;5117194;28;20036;-73
2022/02/12 08:59:45;;;;;;;4.90;2.03;;;;;;;6.73;60.79;101369.06;5116909;28;20078;-74
2022/02/12 09:02:24;;;;;;;6.25;2.70;;;;;;;6.66;59.71;101376.34;5116156;28;20062;-73
2022/02/12 09:04:54;;;;;;;4.83;2.10;;;;;;;6.84;59.36;101381.34;5116704;28;20039;-73
2022/02/12 09:07:24;;;;;;;5.65;2.63;;;;;;;6.90;59.16;101381.59;5117025;28;20784;-73
2022/02/12 09:09:54;;;;;;;4.05;1.92;;;;;;;6.89;58.46;101369.69;5116880;28;20135;-73
2022/02/12 09:12:23;;;;;;;4.50;2.17;;;;;;;6.92;58.14;101370.69;5116777;28;20388;-73
2022/02/12 09:14:51;;;;;;;3.73;2.10;;;;;;;6.98;56.91;101365.84;5116587;28;20122;-73
2022/02/12 09:17:20;;;;;;;3.17;1.70;;;;;;;7.07;56.79;101370.44;5107730;28;20024;-73
2022/02/12 09:19:49;;;;;;;5.35;2.35;;;;;;;6.98;56.31;101365.84;5105864;28;20123;-73
2022/02/12 09:22:19;;;;;;;3.80;1.80;;;;;;;6.93;56.29;101367.38;5116749;28;20561;-73
2022/02/12 09:24:48;;;;;;;3.95;2.03;;;;;;;7.15;55.56;101366.56;5116737;28;20047;-73
2022/02/12 09:27:18;;;;;;;4.82;2.40;;;;;;;7.23;56.02;101366.03;5115824;28;20389;-73
2022/02/12 09:29:48;;;;;;;3.70;1.77;;;;;;;7.28;55.60;101371.31;5116958;28;20455;-73
2022/02/12 09:32:17;;;;;;;3.75;2.10;;;;;;;7.23;54.86;101372.78;5116363;28;20483;-73
2022/02/12 09:34:46;;;;;;;3.90;1.70;;;;;;;7.10;54.68;101383.28;5115077;28;20160;-73
2022/02/12 09:37:19;;;;;;;4.20;1.73;;;;;;;7.12;54.77;101381.66;5116271;28;20109;-73
2022/02/12 09:39:49;;;;;;;3.42;1.63;;;;;;;7.43;54.99;101379.53;5115129;28;20493;-74
2022/02/12 09:42:19;;;;;;;3.58;1.75;;;;;;;7.61;54.49;101369.19;5115548;28;20048;-73
2022/02/12 09:44:48;;;;;;;3.67;1.83;;;;;;;7.46;53.44;101372.03;5116599;28;20043;-73
2022/02/12 09:47:46;;;;;;;4.47;1.85;;;;;;;7.21;52.91;101375.28;5116341;28;20453;-73
2022/02/12 09:50:17;;;;;;;3.70;1.73;;;;;;;7.06;52.65;101373.78;5115234;28;20142;-74
2022/02/12 09:52:53;;;;;;;5.82;1.98;;;;;;;7.40;53.57;101379.41;5115317;28;20442;-74
2022/02/12 09:55:23;;;;;;;4.07;1.55;;;;;;;7.38;52.17;101378.47;5096559;28;20040;-74
2022/02/12 09:57:53;;;;;;;2.83;1.40;;;;;;;7.34;52.69;101381.72;5104963;28;20544;-73
2022/02/12 10:00:21;;;;;;;3.40;1.48;;;;;;;7.30;51.77;101377.31;5115995;28;20097;-74
2022/02/12 10:02:50;;;;;;;3.58;1.23;;;;;;;7.44;51.80;101389.75;5099407;28;20132;-74
2022/02/12 10:05:21;;;;;;;3.13;1.45;;;;;;;7.65;51.35;101389.72;5103025;28;20040;-75
2022/02/12 10:07:52;;;;;;;2.97;1.48;;;;;;;7.72;50.64;101386.59;5099786;28;20040;-76
2022/02/12 10:10:23;;;;;;;2.83;1.58;;;;;;;8.06;50.76;101374.31;5095651;28;20390;-76
2022/02/12 10:12:52;;;;;;;2.28;1.20;;;;;;;8.16;50.13;101374.69;5095014;28;20489;-76
2022/02/12 10:15:25;;;;;;;2.92;1.27;;;;;;;8.19;49.01;101390.00;5095137;28;20119;-76
2022/02/12 10:17:55;;;;;;;3.78;1.27;;;;;;;8.03;47.87;101379.31;5095759;28;20382;-77
2022/02/12 10:20:26;;;;;;;2.60;1.30;;;;;;;7.89;47.46;101380.44;5093637;28;20506;-75
2022/02/12 10:23:03;;;;;;;3.25;1.42;;;;;;;7.90;47.46;101377.13;5095069;28;20040;-77
2022/02/12 10:25:32;;;;;;;2.40;1.25;;;;;;;7.74;46.92;101374.81;5108192;28;20039;-76
2022/02/12 10:28:04;;;;;;;3.88;1.42;;;;;;;7.67;47.87;101377.94;5115195;28;20075;-74
2022/02/12 10:30:34;;;;;;;4.03;1.73;;;;;;;7.88;47.85;101363.47;5096582;28;20040;-73
2022/02/12 10:33:07;;;;;;;4.10;2.08;;;;;;;8.19;47.77;101356.97;5114836;28;20094;-75
2022/02/12 10:35:37;;;;;;;2.55;1.60;;;;;;;7.97;46.86;101352.78;5115459;28;20044;-75
2022/02/12 10:38:10;;;;;;;3.67;1.58;;;;;;;7.80;46.59;101354.69;5113883;28;20098;-75
2022/02/12 10:40:40;;;;;;;3.15;1.52;;;;;;;8.08;46.34;101352.38;5115023;28;20054;-77
2022/02/12 10:43:10;;;;;;;4.00;1.50;;;;;;;8.20;46.27;101346.84;5114799;28;20072;-78
2022/02/12 10:45:39;;;;;;;3.92;1.30;;;;;;;8.28;46.38;101314.09;5115102;28;20089;-77
2022/02/12 10:48:11;;;;;;;2.38;1.30;;;;;;;8.37;45.30;101350.03;5115026;28;20071;-77
2022/02/12 10:50:42;;;;;;;2.83;1.52;;;;;;;8.51;45.36;101329.34;5113838;28;20051;-78
2022/02/12 10:53:12;;;;;;;2.42;1.20;;;;;;;8.90;45.14;101355.22;5113421;28;20043;-74
2022/02/12 10:55:44;;;;;;;3.80;1.33;;;;;;;8.97;44.28;101344.44;5114282;28;20071;-77
2022/02/12 10:58:16;;;;;;;6.57;1.80;;;;;;;9.27;44.79;101350.50;5114751;28;20493;-77
2022/02/12 11:00:45;;;;;;;2.42;1.20;;;;;;;9.51;43.97;101337.66;5115238;28;20043;-74
2022/02/12 11:03:16;;;;;;;2.70;1.40;;;;;;;9.82;43.33;101332.63;5114157;28;20048;-76
2022/02/12 11:05:56;;;;;;;3.25;1.40;;;;;;;9.35;43.19;101326.13;5113204;28;20039;-76
2022/02/12 11:08:28;;;;;;;4.88;1.60;;;;;;;9.45;42.90;101328.13;5114497;28;20075;-78
2022/02/12 11:10:57;;;;;;;5.03;1.65;;;;;;;9.94;43.58;101324.44;5115065;28;20423;-78
2022/02/12 11:13:26;;;;;;;1.53;0.90;;;;;;;10.06;42.35;101307.81;5114324;28;20493;-76
2022/02/12 11:15:58;;;;;;;2.95;1.48;;;;;;;9.99;41.65;101312.69;5114107;28;20043;-78
2022/02/12 11:18:29;;;;;;;3.20;1.65;;;;;;;10.02;40.96;101318.75;5114394;28;20047;-76
2022/02/12 11:21:01;;;;;;;3.08;1.40;;;;;;;9.76;40.32;101317.16;5114476;28;20047;-76
2022/02/12 11:23:32;;;;;;;4.82;1.48;;;;;;;9.96;40.08;101322.81;5114246;28;20051;-76
2022/02/12 11:26:22;;;;;;;3.38;1.20;;;;;;;9.92;39.81;101326.09;5114218;28;20054;-75
2022/02/12 11:28:52;;;;;;;2.45;1.38;;;;;;;10.15;40.12;101319.97;5114479;27;20089;-76
2022/02/12 11:31:24;;;;;;;3.60;1.40;;;;;;;10.23;39.04;101292.13;5113633;28;20035;-75
2022/02/12 11:34:09;;;;;;;3.70;1.73;;;;;;;10.23;38.93;101310.84;5114188;28;20392;-76
2022/02/12 11:36:40;;;;;;;2.90;1.48;;;;;;;10.25;40.13;101315.97;5114125;28;20055;-75
2022/02/12 11:39:19;;;;;;;3.13;1.48;;;;;;;10.84;40.10;101312.41;5113689;28;20071;-75
2022/02/12 11:41:50;;;;;;;2.65;1.30;;;;;;;10.62;38.97;101288.91;5114692;28;20043;-77
2022/02/12 11:44:43;;;;;;;3.13;1.75;;;;;;;10.58;39.34;101314.34;5096501;28;20039;-75
2022/02/12 11:47:16;;;;;;;2.25;1.15;;;;;;;10.65;37.91;101314.50;5114085;28;20452;-76
2022/02/12 11:49:46;;;;;;;2.03;1.13;;;;;;;10.17;37.33;101313.25;5113995;28;20071;-77
2022/02/12 11:52:46;;;;;;;3.40;1.10;;;;;;;9.95;37.15;101303.25;5113970;28;20512;-76
2022/02/12 11:55:38;;;;;;;3.28;1.45;;;;;;;10.43;38.13;101304.59;5113614;28;20043;-77
2022/02/12 11:58:08;;;;;;;5.00;1.52;;;;;;;10.68;37.69;101299.25;5113910;28;20051;-76
2022/02/12 12:00:39;;;;;;;2.03;1.20;;;;;;;10.65;37.32;101299.19;5113844;28;20050;-78